sensor_id;sensor_type;location;lat;lon;timestamp;temperature;humidity
573;DHT22;271;51.114;13.780;2023-02-04T00:01:00;4.10;16.50
573;DHT22;271;51.114;13.780;2023-02-04T00:03:47;4.00;12.00
573;DHT22;271;51.114;13.780;2023-02-04T00:06:35;3.90;9.20
573;DHT22;271;51.114;13.780;2023-02-04T00:09:24;3.90;7.90
573;DHT22;271;51.114;13.780;2023-02-04T00:12:12;3.90;9.90
573;DHT22;271;51.114;13.780;2023-02-04T00:15:00;3.90;11.40
573;DHT22;271;51.114;13.780;2023-02-04T00:17:49;3.80;11.80
573;DHT22;271;51.114;13.780;2023-02-04T00:20:36;3.80;9.60
573;DHT22;271;51.114;13.780;2023-02-04T00:23:24;3.60;1.00
573;DHT22;271;51.114;13.780;2023-02-04T00:26:12;3.30;1.00
573;DHT22;271;51.114;13.780;2023-02-04T00:28:59;3.20;1.00
573;DHT22;271;51.114;13.780;2023-02-04T00:31:47;3.10;1.00
573;DHT22;271;51.114;13.780;2023-02-04T00:34:36;3.10;1.00
573;DHT22;271;51.114;13.780;2023-02-04T00:37:24;3.00;1.00
573;DHT22;271;51.114;13.780;2023-02-04T00:40:12;2.90;1.00
573;DHT22;271;51.114;13.780;2023-02-04T00:43:00;2.80;1.00
573;DHT22;271;51.114;13.780;2023-02-04T00:45:47;2.80;1.00
573;DHT22;271;51.114;13.780;2023-02-04T00:48:35;2.80;1.00
573;DHT22;271;51.114;13.780;2023-02-04T00:51:24;2.80;1.00
573;DHT22;271;51.114;13.780;2023-02-04T00:54:12;2.70;1.00
573;DHT22;271;51.114;13.780;2023-02-04T00:57:01;2.70;1.00
573;DHT22;271;51.114;13.780;2023-02-04T00:59:49;2.70;1.00
573;DHT22;271;51.114;13.780;2023-02-04T01:02:36;2.80;1.00
573;DHT22;271;51.114;13.780;2023-02-04T01:05:25;2.70;1.00
573;DHT22;271;51.114;13.780;2023-02-04T01:08:14;2.70;1.00
573;DHT22;271;51.114;13.780;2023-02-04T01:11:03;2.70;1.00
573;DHT22;271;51.114;13.780;2023-02-04T01:13:50;2.80;1.00
573;DHT22;271;51.114;13.780;2023-02-04T01:16:39;2.80;1.00
573;DHT22;271;51.114;13.780;2023-02-04T01:19:26;2.70;1.00
573;DHT22;271;51.114;13.780;2023-02-04T01:22:14;2.80;1.00
573;DHT22;271;51.114;13.780;2023-02-04T01:25:04;2.80;1.00
573;DHT22;271;51.114;13.780;2023-02-04T01:27:52;2.80;1.00
573;DHT22;271;51.114;13.780;2023-02-04T01:30:39;2.70;1.00
573;DHT22;271;51.114;13.780;2023-02-04T01:33:27;2.60;1.00
573;DHT22;271;51.114;13.780;2023-02-04T01:36:15;2.60;1.00
573;DHT22;271;51.114;13.780;2023-02-04T01:39:06;2.60;1.00
573;DHT22;271;51.114;13.780;2023-02-04T01:41:56;2.60;1.00
573;DHT22;271;51.114;13.780;2023-02-04T01:44:46;2.50;1.00
573;DHT22;271;51.114;13.780;2023-02-04T01:47:34;2.60;1.00
573;DHT22;271;51.114;13.780;2023-02-04T01:50:22;2.40;1.00
573;DHT22;271;51.114;13.780;2023-02-04T01:53:10;2.40;1.00
573;DHT22;271;51.114;13.780;2023-02-04T01:55:58;2.40;1.00
573;DHT22;271;51.114;13.780;2023-02-04T01:58:48;2.40;1.00
573;DHT22;271;51.114;13.780;2023-02-04T02:01:37;2.40;1.00
573;DHT22;271;51.114;13.780;2023-02-04T02:04:32;2.40;1.00
573;DHT22;271;51.114;13.780;2023-02-04T02:07:20;2.40;1.00
573;DHT22;271;51.114;13.780;2023-02-04T02:10:10;2.50;1.00
573;DHT22;271;51.114;13.780;2023-02-04T02:12:58;2.40;1.00
573;DHT22;271;51.114;13.780;2023-02-04T02:15:47;2.40;1.00
573;DHT22;271;51.114;13.780;2023-02-04T02:18:35;2.30;1.00
573;DHT22;271;51.114;13.780;2023-02-04T02:21:30;2.30;1.00
573;DHT22;271;51.114;13.780;2023-02-04T02:24:27;2.30;1.00
573;DHT22;271;51.114;13.780;2023-02-04T02:27:15;2.30;1.00
573;DHT22;271;51.114;13.780;2023-02-04T02:30:04;2.30;1.00
573;DHT22;271;51.114;13.780;2023-02-04T02:32:52;2.40;1.00
573;DHT22;271;51.114;13.780;2023-02-04T02:35:40;2.40;1.00
573;DHT22;271;51.114;13.780;2023-02-04T02:38:29;2.40;1.00
573;DHT22;271;51.114;13.780;2023-02-04T02:41:18;2.40;1.00
573;DHT22;271;51.114;13.780;2023-02-04T02:44:06;2.40;1.00
573;DHT22;271;51.114;13.780;2023-02-04T02:46:54;2.40;1.00
573;DHT22;271;51.114;13.780;2023-02-04T02:49:42;2.40;1.00
573;DHT22;271;51.114;13.780;2023-02-04T02:52:30;2.40;1.00
573;DHT22;271;51.114;13.780;2023-02-04T02:55:19;2.40;1.00
573;DHT22;271;51.114;13.780;2023-02-04T02:58:12;2.40;1.00
573;DHT22;271;51.114;13.780;2023-02-04T03:01:04;2.30;1.00
573;DHT22;271;51.114;13.780;2023-02-04T03:03:52;2.30;1.00
573;DHT22;271;51.114;13.780;2023-02-04T03:06:40;2.30;1.00
573;DHT22;271;51.114;13.780;2023-02-04T03:09:28;2.30;1.00
573;DHT22;271;51.114;13.780;2023-02-04T03:12:16;2.30;1.00
573;DHT22;271;51.114;13.780;2023-02-04T03:15:06;2.40;1.00
573;DHT22;271;51.114;13.780;2023-02-04T03:17:53;2.30;1.00
573;DHT22;271;51.114;13.780;2023-02-04T03:20:42;2.30;1.00
573;DHT22;271;51.114;13.780;2023-02-04T03:23:30;2.30;1.00
573;DHT22;271;51.114;13.780;2023-02-04T03:26:18;2.40;1.00
573;DHT22;271;51.114;13.780;2023-02-04T03:29:07;2.30;1.00
573;DHT22;271;51.114;13.780;2023-02-04T03:31:57;2.40;1.00
573;DHT22;271;51.114;13.780;2023-02-04T03:34:45;2.30;1.00
573;DHT22;271;51.114;13.780;2023-02-04T03:37:33;2.30;1.00
573;DHT22;271;51.114;13.780;2023-02-04T03:40:20;2.10;1.00
573;DHT22;271;51.114;13.780;2023-02-04T03:43:08;1.90;1.00
573;DHT22;271;51.114;13.780;2023-02-04T03:45:56;1.90;1.00
573;DHT22;271;51.114;13.780;2023-02-04T03:48:45;1.80;1.00
573;DHT22;271;51.114;13.780;2023-02-04T03:51:32;1.80;1.00
573;DHT22;271;51.114;13.780;2023-02-04T03:54:20;1.70;1.00
573;DHT22;271;51.114;13.780;2023-02-04T03:57:08;1.70;1.00
573;DHT22;271;51.114;13.780;2023-02-04T03:59:56;1.70;1.00
573;DHT22;271;51.114;13.780;2023-02-04T04:02:43;1.60;1.00
573;DHT22;271;51.114;13.780;2023-02-04T04:05:32;1.60;1.00
573;DHT22;271;51.114;13.780;2023-02-04T04:08:20;1.50;1.00
573;DHT22;271;51.114;13.780;2023-02-04T04:11:08;1.50;1.00
573;DHT22;271;51.114;13.780;2023-02-04T04:13:55;1.50;1.00
573;DHT22;271;51.114;13.780;2023-02-04T04:16:43;1.50;1.00
573;DHT22;271;51.114;13.780;2023-02-04T04:19:31;1.60;1.00
573;DHT22;271;51.114;13.780;2023-02-04T04:22:20;1.50;1.00
573;DHT22;271;51.114;13.780;2023-02-04T04:25:08;1.50;1.00
573;DHT22;271;51.114;13.780;2023-02-04T04:27:56;1.60;1.00
573;DHT22;271;51.114;13.780;2023-02-04T04:30:44;1.60;1.00
573;DHT22;271;51.114;13.780;2023-02-04T04:33:32;1.60;1.00
573;DHT22;271;51.114;13.780;2023-02-04T04:36:19;1.60;1.00
573;DHT22;271;51.114;13.780;2023-02-04T04:39:08;1.60;1.00
573;DHT22;271;51.114;13.780;2023-02-04T04:41:56;1.70;1.00
573;DHT22;271;51.114;13.780;2023-02-04T04:44:44;1.70;1.00
573;DHT22;271;51.114;13.780;2023-02-04T04:47:32;1.70;1.00
573;DHT22;271;51.114;13.780;2023-02-04T04:50:20;1.80;1.00
573;DHT22;271;51.114;13.780;2023-02-04T04:53:07;1.80;1.00
573;DHT22;271;51.114;13.780;2023-02-04T04:55:57;1.80;1.00
573;DHT22;271;51.114;13.780;2023-02-04T04:58:45;1.80;1.00
573;DHT22;271;51.114;13.780;2023-02-04T05:01:33;1.80;1.00
573;DHT22;271;51.114;13.780;2023-02-04T05:04:21;1.80;1.00
573;DHT22;271;51.114;13.780;2023-02-04T05:07:09;1.90;1.00
573;DHT22;271;51.114;13.780;2023-02-04T05:09:56;1.90;1.00
573;DHT22;271;51.114;13.780;2023-02-04T05:12:45;1.90;1.00
573;DHT22;271;51.114;13.780;2023-02-04T05:15:33;1.90;1.00
573;DHT22;271;51.114;13.780;2023-02-04T05:18:21;1.90;1.00
573;DHT22;271;51.114;13.780;2023-02-04T05:21:09;2.00;1.00
573;DHT22;271;51.114;13.780;2023-02-04T05:23:56;2.00;1.00
573;DHT22;271;51.114;13.780;2023-02-04T05:26:44;2.00;1.00
573;DHT22;271;51.114;13.780;2023-02-04T05:29:33;2.00;1.00
573;DHT22;271;51.114;13.780;2023-02-04T05:32:20;1.90;1.00
573;DHT22;271;51.114;13.780;2023-02-04T05:35:08;1.90;1.00
573;DHT22;271;51.114;13.780;2023-02-04T05:37:56;1.70;1.00
573;DHT22;271;51.114;13.780;2023-02-04T05:40:45;1.70;1.00
573;DHT22;271;51.114;13.780;2023-02-04T05:43:33;1.70;1.00
573;DHT22;271;51.114;13.780;2023-02-04T05:46:22;1.80;1.00
573;DHT22;271;51.114;13.780;2023-02-04T05:49:10;1.50;1.00
573;DHT22;271;51.114;13.780;2023-02-04T05:51:58;1.50;1.00
573;DHT22;271;51.114;13.780;2023-02-04T05:54:45;1.60;1.00
573;DHT22;271;51.114;13.780;2023-02-04T05:57:33;1.50;1.00
573;DHT22;271;51.114;13.780;2023-02-04T06:00:21;1.50;1.00
573;DHT22;271;51.114;13.780;2023-02-04T06:03:11;1.40;1.00
573;DHT22;271;51.114;13.780;2023-02-04T06:05:59;1.40;1.00
573;DHT22;271;51.114;13.780;2023-02-04T06:08:47;1.40;1.00
573;DHT22;271;51.114;13.780;2023-02-04T06:11:35;1.40;1.00
573;DHT22;271;51.114;13.780;2023-02-04T06:14:22;1.30;1.00
573;DHT22;271;51.114;13.780;2023-02-04T06:17:10;1.40;1.00
573;DHT22;271;51.114;13.780;2023-02-04T06:19:59;1.20;1.00
573;DHT22;271;51.114;13.780;2023-02-04T06:22:46;1.20;1.00
573;DHT22;271;51.114;13.780;2023-02-04T06:25:36;1.10;1.00
573;DHT22;271;51.114;13.780;2023-02-04T06:28:24;1.00;1.00
573;DHT22;271;51.114;13.780;2023-02-04T06:31:12;1.00;1.00
573;DHT22;271;51.114;13.780;2023-02-04T06:34:00;0.90;1.00
573;DHT22;271;51.114;13.780;2023-02-04T06:36:49;0.90;1.00
573;DHT22;271;51.114;13.780;2023-02-04T06:39:36;0.90;1.00
573;DHT22;271;51.114;13.780;2023-02-04T06:42:24;0.90;1.00
573;DHT22;271;51.114;13.780;2023-02-04T06:45:12;0.80;1.00
573;DHT22;271;51.114;13.780;2023-02-04T06:48:00;0.90;1.00
573;DHT22;271;51.114;13.780;2023-02-04T06:50:47;0.80;1.00
573;DHT22;271;51.114;13.780;2023-02-04T06:53:36;0.80;1.00
573;DHT22;271;51.114;13.780;2023-02-04T06:56:25;0.70;1.00
573;DHT22;271;51.114;13.780;2023-02-04T06:59:15;0.70;1.00
573;DHT22;271;51.114;13.780;2023-02-04T07:02:03;0.70;1.00
573;DHT22;271;51.114;13.780;2023-02-04T07:04:51;0.70;1.00
573;DHT22;271;51.114;13.780;2023-02-04T07:07:39;0.60;1.00
573;DHT22;271;51.114;13.780;2023-02-04T07:10:28;0.60;1.00
573;DHT22;271;51.114;13.780;2023-02-04T07:13:15;0.60;1.00
573;DHT22;271;51.114;13.780;2023-02-04T07:16:03;0.50;1.00
573;DHT22;271;51.114;13.780;2023-02-04T07:18:52;0.50;1.00
573;DHT22;271;51.114;13.780;2023-02-04T07:21:40;0.50;1.00
573;DHT22;271;51.114;13.780;2023-02-04T07:24:27;0.50;1.00
573;DHT22;271;51.114;13.780;2023-02-04T07:27:16;0.50;1.00
573;DHT22;271;51.114;13.780;2023-02-04T07:30:05;0.60;1.00
573;DHT22;271;51.114;13.780;2023-02-04T07:32:53;0.60;1.00
573;DHT22;271;51.114;13.780;2023-02-04T07:35:41;0.60;1.00
573;DHT22;271;51.114;13.780;2023-02-04T07:38:29;0.70;1.00
573;DHT22;271;51.114;13.780;2023-02-04T07:41:17;0.70;1.00
573;DHT22;271;51.114;13.780;2023-02-04T07:44:07;0.70;1.00
573;DHT22;271;51.114;13.780;2023-02-04T07:46:55;0.70;1.00
573;DHT22;271;51.114;13.780;2023-02-04T07:49:43;0.70;1.00
573;DHT22;271;51.114;13.780;2023-02-04T07:52:30;0.70;1.00
573;DHT22;271;51.114;13.780;2023-02-04T07:55:18;0.80;1.00
573;DHT22;271;51.114;13.780;2023-02-04T07:58:06;0.80;1.00
573;DHT22;271;51.114;13.780;2023-02-04T08:00:55;0.90;1.00
573;DHT22;271;51.114;13.780;2023-02-04T08:03:43;1.00;1.00
573;DHT22;271;51.114;13.780;2023-02-04T08:06:31;1.00;1.00
573;DHT22;271;51.114;13.780;2023-02-04T08:09:18;1.00;1.00
573;DHT22;271;51.114;13.780;2023-02-04T08:12:06;1.10;1.00
573;DHT22;271;51.114;13.780;2023-02-04T08:14:54;1.10;1.00
573;DHT22;271;51.114;13.780;2023-02-04T08:17:43;1.30;1.00
573;DHT22;271;51.114;13.780;2023-02-04T08:20:31;1.40;1.00
573;DHT22;271;51.114;13.780;2023-02-04T08:23:18;1.40;1.00
573;DHT22;271;51.114;13.780;2023-02-04T08:26:07;1.50;1.00
573;DHT22;271;51.114;13.780;2023-02-04T08:28:55;1.40;1.00
573;DHT22;271;51.114;13.780;2023-02-04T08:31:43;1.40;1.00
573;DHT22;271;51.114;13.780;2023-02-04T08:34:34;1.40;1.00
573;DHT22;271;51.114;13.780;2023-02-04T08:37:22;1.50;1.00
573;DHT22;271;51.114;13.780;2023-02-04T08:40:10;1.40;1.00
573;DHT22;271;51.114;13.780;2023-02-04T08:42:58;1.40;1.00
573;DHT22;271;51.114;13.780;2023-02-04T08:45:46;1.50;1.00
573;DHT22;271;51.114;13.780;2023-02-04T08:48:33;1.50;1.00
573;DHT22;271;51.114;13.780;2023-02-04T08:51:23;1.60;1.00
573;DHT22;271;51.114;13.780;2023-02-04T08:54:11;1.70;1.00
573;DHT22;271;51.114;13.780;2023-02-04T08:56:59;1.70;1.00
573;DHT22;271;51.114;13.780;2023-02-04T08:59:47;1.80;1.00
573;DHT22;271;51.114;13.780;2023-02-04T09:02:34;2.00;1.00
573;DHT22;271;51.114;13.780;2023-02-04T09:05:22;2.20;1.00
573;DHT22;271;51.114;13.780;2023-02-04T09:08:11;2.40;1.00
573;DHT22;271;51.114;13.780;2023-02-04T09:11:01;2.50;1.00
573;DHT22;271;51.114;13.780;2023-02-04T09:13:49;2.60;1.00
573;DHT22;271;51.114;13.780;2023-02-04T09:16:37;2.60;1.00
573;DHT22;271;51.114;13.780;2023-02-04T09:19:25;2.50;1.00
573;DHT22;271;51.114;13.780;2023-02-04T09:22:13;2.60;1.00
573;DHT22;271;51.114;13.780;2023-02-04T09:25:02;2.60;1.00
573;DHT22;271;51.114;13.780;2023-02-04T09:27:50;2.60;1.00
573;DHT22;271;51.114;13.780;2023-02-04T09:30:39;2.60;1.00
573;DHT22;271;51.114;13.780;2023-02-04T09:33:27;2.60;1.00
573;DHT22;271;51.114;13.780;2023-02-04T09:36:14;2.60;1.00
573;DHT22;271;51.114;13.780;2023-02-04T09:39:03;2.70;1.00
573;DHT22;271;51.114;13.780;2023-02-04T09:41:52;2.80;1.00
573;DHT22;271;51.114;13.780;2023-02-04T09:44:40;2.70;1.00
573;DHT22;271;51.114;13.780;2023-02-04T09:47:30;2.70;1.00
573;DHT22;271;51.114;13.780;2023-02-04T09:50:21;2.70;1.00
573;DHT22;271;51.114;13.780;2023-02-04T09:53:12;2.70;1.00
573;DHT22;271;51.114;13.780;2023-02-04T09:56:00;2.60;1.00
573;DHT22;271;51.114;13.780;2023-02-04T09:58:50;2.70;1.00
573;DHT22;271;51.114;13.780;2023-02-04T10:01:38;2.60;1.00
573;DHT22;271;51.114;13.780;2023-02-04T10:04:26;2.60;1.00
573;DHT22;271;51.114;13.780;2023-02-04T10:07:17;2.70;1.00
573;DHT22;271;51.114;13.780;2023-02-04T10:10:14;2.60;1.00
573;DHT22;271;51.114;13.780;2023-02-04T10:13:03;2.70;1.00
573;DHT22;271;51.114;13.780;2023-02-04T10:15:55;2.80;1.00
573;DHT22;271;51.114;13.780;2023-02-04T10:18:43;2.90;1.00
573;DHT22;271;51.114;13.780;2023-02-04T10:21:33;3.00;1.00
573;DHT22;271;51.114;13.780;2023-02-04T10:24:23;3.20;1.00
573;DHT22;271;51.114;13.780;2023-02-04T10:27:12;3.30;1.00
573;DHT22;271;51.114;13.780;2023-02-04T10:30:02;3.30;1.00
573;DHT22;271;51.114;13.780;2023-02-04T10:32:52;3.20;1.00
573;DHT22;271;51.114;13.780;2023-02-04T10:35:45;3.40;1.00
573;DHT22;271;51.114;13.780;2023-02-04T10:38:33;3.30;1.00
573;DHT22;271;51.114;13.780;2023-02-04T10:41:21;3.30;1.00
573;DHT22;271;51.114;13.780;2023-02-04T10:44:11;3.60;1.00
573;DHT22;271;51.114;13.780;2023-02-04T10:47:01;3.80;1.00
573;DHT22;271;51.114;13.780;2023-02-04T10:49:55;3.90;1.00
573;DHT22;271;51.114;13.780;2023-02-04T10:52:47;3.80;1.00
573;DHT22;271;51.114;13.780;2023-02-04T10:55:41;4.00;1.00
573;DHT22;271;51.114;13.780;2023-02-04T10:58:38;4.50;1.00
573;DHT22;271;51.114;13.780;2023-02-04T11:01:28;5.00;1.00
573;DHT22;271;51.114;13.780;2023-02-04T11:04:20;5.10;1.00
573;DHT22;271;51.114;13.780;2023-02-04T11:07:12;4.90;1.00
573;DHT22;271;51.114;13.780;2023-02-04T11:09:59;4.50;1.00
573;DHT22;271;51.114;13.780;2023-02-04T11:12:59;4.20;1.00
573;DHT22;271;51.114;13.780;2023-02-04T11:15:49;4.30;1.00
573;DHT22;271;51.114;13.780;2023-02-04T11:18:46;4.70;1.00
573;DHT22;271;51.114;13.780;2023-02-04T11:21:44;5.10;1.00
573;DHT22;271;51.114;13.780;2023-02-04T11:24:33;5.30;1.00
573;DHT22;271;51.114;13.780;2023-02-04T11:27:23;5.50;1.00
573;DHT22;271;51.114;13.780;2023-02-04T11:30:20;5.10;1.00
573;DHT22;271;51.114;13.780;2023-02-04T11:33:22;5.40;1.00
573;DHT22;271;51.114;13.780;2023-02-04T11:36:12;5.90;1.00
573;DHT22;271;51.114;13.780;2023-02-04T11:39:07;5.90;1.00
573;DHT22;271;51.114;13.780;2023-02-04T11:42:01;6.00;1.00
573;DHT22;271;51.114;13.780;2023-02-04T11:44:51;5.90;1.00
573;DHT22;271;51.114;13.780;2023-02-04T11:47:49;6.10;1.00
573;DHT22;271;51.114;13.780;2023-02-04T11:50:38;5.90;1.00
573;DHT22;271;51.114;13.780;2023-02-04T11:53:28;5.50;1.00
573;DHT22;271;51.114;13.780;2023-02-04T11:56:21;5.40;1.00
573;DHT22;271;51.114;13.780;2023-02-04T11:59:13;5.30;1.00
573;DHT22;271;51.114;13.780;2023-02-04T12:02:04;5.30;1.00
573;DHT22;271;51.114;13.780;2023-02-04T12:04:54;5.10;1.00
573;DHT22;271;51.114;13.780;2023-02-04T12:07:42;4.80;1.00
573;DHT22;271;51.114;13.780;2023-02-04T12:10:32;4.40;1.00
573;DHT22;271;51.114;13.780;2023-02-04T12:13:22;4.20;1.00
573;DHT22;271;51.114;13.780;2023-02-04T12:16:11;4.00;1.00
573;DHT22;271;51.114;13.780;2023-02-04T12:18:59;3.80;1.00
573;DHT22;271;51.114;13.780;2023-02-04T12:21:47;3.60;1.00
573;DHT22;271;51.114;13.780;2023-02-04T12:24:35;3.60;1.00
573;DHT22;271;51.114;13.780;2023-02-04T12:27:23;3.80;1.00
573;DHT22;271;51.114;13.780;2023-02-04T12:30:14;4.10;1.00
573;DHT22;271;51.114;13.780;2023-02-04T12:33:05;4.40;1.00
573;DHT22;271;51.114;13.780;2023-02-04T12:35:52;4.50;1.00
573;DHT22;271;51.114;13.780;2023-02-04T12:38:40;4.50;1.00
573;DHT22;271;51.114;13.780;2023-02-04T12:41:28;4.40;1.00
573;DHT22;271;51.114;13.780;2023-02-04T12:44:15;4.60;1.00
573;DHT22;271;51.114;13.780;2023-02-04T12:47:04;4.70;1.00
573;DHT22;271;51.114;13.780;2023-02-04T12:49:53;4.80;1.00
573;DHT22;271;51.114;13.780;2023-02-04T12:52:40;4.70;1.00
573;DHT22;271;51.114;13.780;2023-02-04T12:55:28;4.80;1.00
573;DHT22;271;51.114;13.780;2023-02-04T12:58:16;4.70;1.00
573;DHT22;271;51.114;13.780;2023-02-04T13:01:04;4.70;1.00
573;DHT22;271;51.114;13.780;2023-02-04T13:03:51;4.70;1.00
573;DHT22;271;51.114;13.780;2023-02-04T13:06:40;4.80;1.00
573;DHT22;271;51.114;13.780;2023-02-04T13:09:28;4.90;1.00
573;DHT22;271;51.114;13.780;2023-02-04T13:12:15;4.90;1.00
573;DHT22;271;51.114;13.780;2023-02-04T13:15:04;5.10;1.00
573;DHT22;271;51.114;13.780;2023-02-04T13:17:52;5.10;1.00
573;DHT22;271;51.114;13.780;2023-02-04T13:20:39;5.10;1.00
573;DHT22;271;51.114;13.780;2023-02-04T13:23:29;5.00;1.00
573;DHT22;271;51.114;13.780;2023-02-04T13:26:17;4.90;1.00
573;DHT22;271;51.114;13.780;2023-02-04T13:29:04;4.90;1.00
573;DHT22;271;51.114;13.780;2023-02-04T13:31:52;4.90;1.00
573;DHT22;271;51.114;13.780;2023-02-04T13:34:40;5.10;1.00
573;DHT22;271;51.114;13.780;2023-02-04T13:37:27;5.30;1.00
573;DHT22;271;51.114;13.780;2023-02-04T13:40:17;5.40;1.00
573;DHT22;271;51.114;13.780;2023-02-04T13:43:05;5.20;1.00
573;DHT22;271;51.114;13.780;2023-02-04T13:45:52;5.10;1.00
573;DHT22;271;51.114;13.780;2023-02-04T13:48:40;5.00;1.00
573;DHT22;271;51.114;13.780;2023-02-04T13:51:28;5.00;1.00
573;DHT22;271;51.114;13.780;2023-02-04T13:54:16;4.90;1.00
573;DHT22;271;51.114;13.780;2023-02-04T13:57:05;4.70;1.00
573;DHT22;271;51.114;13.780;2023-02-04T13:59:52;4.60;1.00
573;DHT22;271;51.114;13.780;2023-02-04T14:02:40;4.60;1.00
573;DHT22;271;51.114;13.780;2023-02-04T14:05:28;4.50;1.00
573;DHT22;271;51.114;13.780;2023-02-04T14:08:16;4.40;1.00
573;DHT22;271;51.114;13.780;2023-02-04T14:11:03;4.20;1.00
573;DHT22;271;51.114;13.780;2023-02-04T14:13:54;4.20;1.00
573;DHT22;271;51.114;13.780;2023-02-04T14:16:41;4.10;1.00
573;DHT22;271;51.114;13.780;2023-02-04T14:19:29;4.10;1.00
573;DHT22;271;51.114;13.780;2023-02-04T14:22:17;4.10;1.00
573;DHT22;271;51.114;13.780;2023-02-04T14:25:05;4.10;1.00
573;DHT22;271;51.114;13.780;2023-02-04T14:27:55;3.90;1.00
573;DHT22;271;51.114;13.780;2023-02-04T14:30:44;3.80;1.00
573;DHT22;271;51.114;13.780;2023-02-04T14:33:32;3.90;1.00
573;DHT22;271;51.114;13.780;2023-02-04T14:36:19;3.90;1.00
573;DHT22;271;51.114;13.780;2023-02-04T14:39:07;3.90;1.00
573;DHT22;271;51.114;13.780;2023-02-04T14:41:55;3.90;1.00
573;DHT22;271;51.114;13.780;2023-02-04T14:44:43;3.90;1.00
573;DHT22;271;51.114;13.780;2023-02-04T14:47:32;3.80;1.00
573;DHT22;271;51.114;13.780;2023-02-04T14:50:19;3.80;1.00
573;DHT22;271;51.114;13.780;2023-02-04T14:53:12;3.70;1.00
573;DHT22;271;51.114;13.780;2023-02-04T14:56:00;3.80;1.00
573;DHT22;271;51.114;13.780;2023-02-04T14:58:47;3.90;1.00
573;DHT22;271;51.114;13.780;2023-02-04T15:01:35;3.70;1.00
573;DHT22;271;51.114;13.780;2023-02-04T15:04:24;3.80;1.00
573;DHT22;271;51.114;13.780;2023-02-04T15:07:12;3.80;1.00
573;DHT22;271;51.114;13.780;2023-02-04T15:10:00;3.80;1.00
573;DHT22;271;51.114;13.780;2023-02-04T15:12:47;3.80;1.00
573;DHT22;271;51.114;13.780;2023-02-04T15:15:35;3.80;1.00
573;DHT22;271;51.114;13.780;2023-02-04T15:18:23;3.70;1.00
573;DHT22;271;51.114;13.780;2023-02-04T15:21:12;3.60;1.00
573;DHT22;271;51.114;13.780;2023-02-04T15:24:02;3.50;1.00
573;DHT22;271;51.114;13.780;2023-02-04T15:26:50;3.50;1.00
573;DHT22;271;51.114;13.780;2023-02-04T15:29:37;3.40;1.00
573;DHT22;271;51.114;13.780;2023-02-04T15:32:25;3.40;1.00
573;DHT22;271;51.114;13.780;2023-02-04T15:35:13;3.30;1.00
573;DHT22;271;51.114;13.780;2023-02-04T15:38:02;3.30;1.00
573;DHT22;271;51.114;13.780;2023-02-04T15:40:50;3.30;1.00
573;DHT22;271;51.114;13.780;2023-02-04T15:43:37;3.30;1.00
573;DHT22;271;51.114;13.780;2023-02-04T15:46:25;3.30;1.00
573;DHT22;271;51.114;13.780;2023-02-04T15:49:13;3.20;1.00
573;DHT22;271;51.114;13.780;2023-02-04T15:52:01;3.20;1.00
573;DHT22;271;51.114;13.780;2023-02-04T15:54:50;3.20;1.00
573;DHT22;271;51.114;13.780;2023-02-04T15:57:39;3.10;1.00
573;DHT22;271;51.114;13.780;2023-02-04T16:00:28;3.00;1.00
573;DHT22;271;51.114;13.780;2023-02-04T16:03:15;3.00;1.00
573;DHT22;271;51.114;13.780;2023-02-04T16:06:03;3.00;1.00
573;DHT22;271;51.114;13.780;2023-02-04T16:08:51;2.80;1.00
573;DHT22;271;51.114;13.780;2023-02-04T16:11:40;2.80;1.00
573;DHT22;271;51.114;13.780;2023-02-04T16:14:28;2.70;1.00
573;DHT22;271;51.114;13.780;2023-02-04T16:17:16;2.60;1.00
573;DHT22;271;51.114;13.780;2023-02-04T16:20:04;2.60;1.00
573;DHT22;271;51.114;13.780;2023-02-04T16:22:52;2.50;1.00
573;DHT22;271;51.114;13.780;2023-02-04T16:25:39;2.50;1.00
573;DHT22;271;51.114;13.780;2023-02-04T16:28:28;2.40;1.00
573;DHT22;271;51.114;13.780;2023-02-04T16:31:16;2.40;1.00
573;DHT22;271;51.114;13.780;2023-02-04T16:34:04;2.30;1.00
573;DHT22;271;51.114;13.780;2023-02-04T16:36:51;2.30;1.00
573;DHT22;271;51.114;13.780;2023-02-04T16:39:39;2.20;1.00
573;DHT22;271;51.114;13.780;2023-02-04T16:42:29;2.10;1.00
573;DHT22;271;51.114;13.780;2023-02-04T16:45:19;2.00;1.00
573;DHT22;271;51.114;13.780;2023-02-04T16:48:06;1.90;1.00
573;DHT22;271;51.114;13.780;2023-02-04T16:50:55;1.90;1.00
573;DHT22;271;51.114;13.780;2023-02-04T16:53:42;1.80;1.00
573;DHT22;271;51.114;13.780;2023-02-04T16:56:30;1.80;1.00
573;DHT22;271;51.114;13.780;2023-02-04T16:59:22;1.70;1.00
573;DHT22;271;51.114;13.780;2023-02-04T17:02:11;1.80;1.00
573;DHT22;271;51.114;13.780;2023-02-04T17:04:58;1.70;1.00
573;DHT22;271;51.114;13.780;2023-02-04T17:07:46;1.70;1.00
573;DHT22;271;51.114;13.780;2023-02-04T17:10:34;1.70;1.00
573;DHT22;271;51.114;13.780;2023-02-04T17:13:39;1.70;1.00
573;DHT22;271;51.114;13.780;2023-02-04T17:16:27;1.60;1.00
573;DHT22;271;51.114;13.780;2023-02-04T17:19:17;1.60;1.00
573;DHT22;271;51.114;13.780;2023-02-04T17:22:06;1.60;1.00
573;DHT22;271;51.114;13.780;2023-02-04T17:24:53;1.60;1.00
573;DHT22;271;51.114;13.780;2023-02-04T17:27:42;1.50;1.00
573;DHT22;271;51.114;13.780;2023-02-04T17:30:29;1.30;1.00
573;DHT22;271;51.114;13.780;2023-02-04T17:33:17;1.20;1.00
573;DHT22;271;51.114;13.780;2023-02-04T17:36:07;1.20;1.00
573;DHT22;271;51.114;13.780;2023-02-04T17:38:55;1.20;1.00
573;DHT22;271;51.114;13.780;2023-02-04T17:41:43;1.20;1.00
573;DHT22;271;51.114;13.780;2023-02-04T17:44:31;1.10;1.00
573;DHT22;271;51.114;13.780;2023-02-04T17:47:18;1.10;1.00
573;DHT22;271;51.114;13.780;2023-02-04T17:50:08;1.00;1.00
573;DHT22;271;51.114;13.780;2023-02-04T17:52:57;0.90;1.00
573;DHT22;271;51.114;13.780;2023-02-04T17:55:45;0.90;1.00
573;DHT22;271;51.114;13.780;2023-02-04T17:58:33;0.90;1.00
573;DHT22;271;51.114;13.780;2023-02-04T18:01:22;0.90;1.00
573;DHT22;271;51.114;13.780;2023-02-04T18:04:11;0.90;1.00
573;DHT22;271;51.114;13.780;2023-02-04T18:06:59;1.00;1.00
573;DHT22;271;51.114;13.780;2023-02-04T18:09:48;0.90;1.00
573;DHT22;271;51.114;13.780;2023-02-04T18:12:36;0.90;1.00
573;DHT22;271;51.114;13.780;2023-02-04T18:15:26;1.00;1.00
573;DHT22;271;51.114;13.780;2023-02-04T18:18:19;1.00;1.00
573;DHT22;271;51.114;13.780;2023-02-04T18:21:16;0.90;1.00
573;DHT22;271;51.114;13.780;2023-02-04T18:24:14;0.90;1.00
573;DHT22;271;51.114;13.780;2023-02-04T18:27:14;0.80;1.00
573;DHT22;271;51.114;13.780;2023-02-04T18:30:14;0.90;1.00
573;DHT22;271;51.114;13.780;2023-02-04T18:33:12;0.90;1.00
573;DHT22;271;51.114;13.780;2023-02-04T18:36:01;0.80;1.00
573;DHT22;271;51.114;13.780;2023-02-04T18:38:49;0.80;1.00
573;DHT22;271;51.114;13.780;2023-02-04T18:41:37;0.80;1.00
573;DHT22;271;51.114;13.780;2023-02-04T18:44:32;0.70;1.00
573;DHT22;271;51.114;13.780;2023-02-04T18:47:29;0.60;1.00
573;DHT22;271;51.114;13.780;2023-02-04T18:50:26;0.60;1.00
573;DHT22;271;51.114;13.780;2023-02-04T18:53:22;0.60;1.00
573;DHT22;271;51.114;13.780;2023-02-04T18:56:13;0.70;1.00
573;DHT22;271;51.114;13.780;2023-02-04T18:59:12;0.60;1.00
573;DHT22;271;51.114;13.780;2023-02-04T19:02:20;0.70;1.00
573;DHT22;271;51.114;13.780;2023-02-04T19:05:25;0.70;1.00
573;DHT22;271;51.114;13.780;2023-02-04T19:08:21;0.70;1.00
573;DHT22;271;51.114;13.780;2023-02-04T19:11:21;0.70;1.00
573;DHT22;271;51.114;13.780;2023-02-04T19:14:16;0.60;1.00
573;DHT22;271;51.114;13.780;2023-02-04T19:17:19;0.60;1.00
573;DHT22;271;51.114;13.780;2023-02-04T19:20:17;0.60;1.00